sensor_id;sensor_type;location;lat;lon;timestamp;P1;durP1;ratioP1;P2;durP2;ratioP2
34988;SDS011;21192;40.182;44.516;2023-12-14T00:00:28;105.97;;;60.90;;
34988;SDS011;21192;40.182;44.516;2023-12-14T00:02:54;106.85;;;65.68;;
34988;SDS011;21192;40.182;44.516;2023-12-14T00:05:20;108.03;;;63.88;;
34988;SDS011;21192;40.182;44.516;2023-12-14T00:07:46;104.13;;;60.90;;
34988;SDS011;21192;40.182;44.516;2023-12-14T00:10:12;109.28;;;60.47;;
34988;SDS011;21192;40.182;44.516;2023-12-14T00:12:38;94.25;;;59.72;;
34988;SDS011;21192;40.182;44.516;2023-12-14T00:15:04;95.50;;;58.75;;
34988;SDS011;21192;40.182;44.516;2023-12-14T00:17:31;101.10;;;60.30;;
34988;SDS011;21192;40.182;44.516;2023-12-14T00:19:57;100.30;;;61.17;;
34988;SDS011;21192;40.182;44.516;2023-12-14T00:22:22;96.93;;;58.92;;
34988;SDS011;21192;40.182;44.516;2023-12-14T00:24:49;103.47;;;59.60;;
34988;SDS011;21192;40.182;44.516;2023-12-14T00:27:15;104.30;;;61.80;;
34988;SDS011;21192;40.182;44.516;2023-12-14T00:29:41;92.22;;;58.53;;
34988;SDS011;21192;40.182;44.516;2023-12-14T00:32:07;102.88;;;58.25;;
34988;SDS011;21192;40.182;44.516;2023-12-14T00:34:33;94.03;;;57.97;;
34988;SDS011;21192;40.182;44.516;2023-12-14T00:36:59;101.22;;;59.17;;
34988;SDS011;21192;40.182;44.516;2023-12-14T00:39:24;98.47;;;60.22;;
34988;SDS011;21192;40.182;44.516;2023-12-14T00:41:50;104.53;;;63.70;;
34988;SDS011;21192;40.182;44.516;2023-12-14T00:44:16;101.65;;;62.15;;
34988;SDS011;21192;40.182;44.516;2023-12-14T00:46:42;106.65;;;63.88;;
34988;SDS011;21192;40.182;44.516;2023-12-14T00:49:08;107.53;;;62.38;;
34988;SDS011;21192;40.182;44.516;2023-12-14T00:51:34;106.05;;;64.10;;
34988;SDS011;21192;40.182;44.516;2023-12-14T00:53:59;101.47;;;61.33;;
34988;SDS011;21192;40.182;44.516;2023-12-14T00:56:25;105.20;;;60.40;;
34988;SDS011;21192;40.182;44.516;2023-12-14T00:58:51;100.72;;;60.15;;
34988;SDS011;21192;40.182;44.516;2023-12-14T01:01:17;105.32;;;60.78;;
34988;SDS011;21192;40.182;44.516;2023-12-14T01:03:43;98.05;;;59.15;;
34988;SDS011;21192;40.182;44.516;2023-12-14T01:06:08;106.60;;;61.78;;
34988;SDS011;21192;40.182;44.516;2023-12-14T01:08:34;110.63;;;63.75;;
34988;SDS011;21192;40.182;44.516;2023-12-14T01:11:00;108.78;;;61.92;;
34988;SDS011;21192;40.182;44.516;2023-12-14T01:13:26;104.50;;;62.63;;
34988;SDS011;21192;40.182;44.516;2023-12-14T01:15:52;105.40;;;62.38;;
34988;SDS011;21192;40.182;44.516;2023-12-14T01:18:18;112.25;;;64.70;;
34988;SDS011;21192;40.182;44.516;2023-12-14T01:20:43;108.18;;;63.15;;
34988;SDS011;21192;40.182;44.516;2023-12-14T01:23:09;99.97;;;60.13;;
34988;SDS011;21192;40.182;44.516;2023-12-14T01:25:35;116.65;;;65.45;;
34988;SDS011;21192;40.182;44.516;2023-12-14T01:28:01;122.88;;;64.47;;
34988;SDS011;21192;40.182;44.516;2023-12-14T01:30:27;115.63;;;64.93;;
34988;SDS011;21192;40.182;44.516;2023-12-14T01:32:53;122.65;;;67.70;;
34988;SDS011;21192;40.182;44.516;2023-12-14T01:35:19;113.05;;;63.38;;
34988;SDS011;21192;40.182;44.516;2023-12-14T01:37:45;111.65;;;62.72;;
34988;SDS011;21192;40.182;44.516;2023-12-14T01:40:11;113.32;;;62.92;;
34988;SDS011;21192;40.182;44.516;2023-12-14T01:42:37;106.88;;;62.30;;
34988;SDS011;21192;40.182;44.516;2023-12-14T01:45:04;111.00;;;62.17;;
34988;SDS011;21192;40.182;44.516;2023-12-14T01:47:30;102.75;;;60.70;;
34988;SDS011;21192;40.182;44.516;2023-12-14T01:49:56;111.38;;;62.92;;
34988;SDS011;21192;40.182;44.516;2023-12-14T01:52:22;117.53;;;65.15;;
34988;SDS011;21192;40.182;44.516;2023-12-14T01:54:48;115.78;;;62.72;;
34988;SDS011;21192;40.182;44.516;2023-12-14T01:57:13;111.90;;;62.22;;
34988;SDS011;21192;40.182;44.516;2023-12-14T01:59:39;121.75;;;64.72;;
34988;SDS011;21192;40.182;44.516;2023-12-14T02:02:05;110.68;;;60.70;;
34988;SDS011;21192;40.182;44.516;2023-12-14T02:04:32;106.80;;;61.03;;
34988;SDS011;21192;40.182;44.516;2023-12-14T02:06:58;112.38;;;63.53;;
34988;SDS011;21192;40.182;44.516;2023-12-14T02:09:25;113.30;;;64.13;;
34988;SDS011;21192;40.182;44.516;2023-12-14T02:11:51;114.07;;;62.00;;
34988;SDS011;21192;40.182;44.516;2023-12-14T02:14:16;119.10;;;62.20;;
34988;SDS011;21192;40.182;44.516;2023-12-14T02:16:42;111.68;;;59.78;;
34988;SDS011;21192;40.182;44.516;2023-12-14T02:19:08;112.70;;;60.58;;
34988;SDS011;21192;40.182;44.516;2023-12-14T02:21:34;106.93;;;55.88;;
34988;SDS011;21192;40.182;44.516;2023-12-14T02:24:00;99.57;;;53.40;;
34988;SDS011;21192;40.182;44.516;2023-12-14T02:26:26;104.78;;;58.13;;
34988;SDS011;21192;40.182;44.516;2023-12-14T02:28:51;97.78;;;53.00;;
34988;SDS011;21192;40.182;44.516;2023-12-14T02:31:18;102.30;;;54.55;;
34988;SDS011;21192;40.182;44.516;2023-12-14T02:33:44;99.97;;;53.45;;
34988;SDS011;21192;40.182;44.516;2023-12-14T02:36:10;98.10;;;53.80;;
34988;SDS011;21192;40.182;44.516;2023-12-14T02:38:36;97.40;;;52.72;;
34988;SDS011;21192;40.182;44.516;2023-12-14T02:41:02;91.15;;;50.22;;
34988;SDS011;21192;40.182;44.516;2023-12-14T02:43:28;93.03;;;46.85;;
34988;SDS011;21192;40.182;44.516;2023-12-14T02:45:54;85.63;;;48.53;;
34988;SDS011;21192;40.182;44.516;2023-12-14T02:48:26;75.80;;;42.08;;
34988;SDS011;21192;40.182;44.516;2023-12-14T02:50:52;74.13;;;41.08;;
34988;SDS011;21192;40.182;44.516;2023-12-14T02:53:18;77.25;;;38.95;;
34988;SDS011;21192;40.182;44.516;2023-12-14T02:55:44;71.53;;;39.15;;
34988;SDS011;21192;40.182;44.516;2023-12-14T02:58:09;75.45;;;40.22;;
34988;SDS011;21192;40.182;44.516;2023-12-14T03:00:35;68.20;;;36.42;;
34988;SDS011;21192;40.182;44.516;2023-12-14T03:03:01;64.20;;;35.47;;
34988;SDS011;21192;40.182;44.516;2023-12-14T03:05:27;67.93;;;37.65;;
34988;SDS011;21192;40.182;44.516;2023-12-14T03:07:53;70.10;;;36.60;;
34988;SDS011;21192;40.182;44.516;2023-12-14T03:10:19;63.72;;;35.70;;
34988;SDS011;21192;40.182;44.516;2023-12-14T03:12:44;54.65;;;32.03;;
34988;SDS011;21192;40.182;44.516;2023-12-14T03:15:10;59.22;;;32.92;;
34988;SDS011;21192;40.182;44.516;2023-12-14T03:17:36;55.92;;;31.55;;
34988;SDS011;21192;40.182;44.516;2023-12-14T03:20:02;54.38;;;30.77;;
34988;SDS011;21192;40.182;44.516;2023-12-14T03:22:30;52.83;;;28.92;;
34988;SDS011;21192;40.182;44.516;2023-12-14T03:24:56;56.28;;;30.55;;
34988;SDS011;21192;40.182;44.516;2023-12-14T03:27:22;56.40;;;33.05;;
34988;SDS011;21192;40.182;44.516;2023-12-14T03:29:49;69.18;;;36.78;;
34988;SDS011;21192;40.182;44.516;2023-12-14T03:32:15;72.50;;;38.63;;
34988;SDS011;21192;40.182;44.516;2023-12-14T03:34:41;80.18;;;45.95;;
34988;SDS011;21192;40.182;44.516;2023-12-14T03:37:07;79.82;;;47.05;;
34988;SDS011;21192;40.182;44.516;2023-12-14T03:39:33;76.43;;;43.58;;
34988;SDS011;21192;40.182;44.516;2023-12-14T03:41:59;73.32;;;42.38;;
34988;SDS011;21192;40.182;44.516;2023-12-14T03:44:24;82.20;;;45.80;;
34988;SDS011;21192;40.182;44.516;2023-12-14T03:46:51;91.25;;;49.83;;
34988;SDS011;21192;40.182;44.516;2023-12-14T03:49:16;88.97;;;50.22;;
34988;SDS011;21192;40.182;44.516;2023-12-14T03:51:42;91.55;;;52.38;;
34988;SDS011;21192;40.182;44.516;2023-12-14T03:54:08;98.00;;;56.00;;
34988;SDS011;21192;40.182;44.516;2023-12-14T03:56:34;106.35;;;59.67;;
34988;SDS011;21192;40.182;44.516;2023-12-14T03:59:00;112.47;;;61.17;;
34988;SDS011;21192;40.182;44.516;2023-12-14T04:01:26;116.15;;;62.58;;
34988;SDS011;21192;40.182;44.516;2023-12-14T04:03:51;110.40;;;61.55;;
34988;SDS011;21192;40.182;44.516;2023-12-14T04:06:17;113.80;;;62.60;;
34988;SDS011;21192;40.182;44.516;2023-12-14T04:08:43;119.65;;;64.45;;
34988;SDS011;21192;40.182;44.516;2023-12-14T04:11:09;122.93;;;65.28;;
34988;SDS011;21192;40.182;44.516;2023-12-14T04:13:35;119.90;;;65.53;;
34988;SDS011;21192;40.182;44.516;2023-12-14T04:16:02;128.77;;;67.07;;
34988;SDS011;21192;40.182;44.516;2023-12-14T04:18:29;130.63;;;69.60;;
34988;SDS011;21192;40.182;44.516;2023-12-14T04:20:54;138.50;;;70.85;;
34988;SDS011;21192;40.182;44.516;2023-12-14T04:23:20;147.27;;;73.10;;
34988;SDS011;21192;40.182;44.516;2023-12-14T04:25:46;150.13;;;73.47;;
34988;SDS011;21192;40.182;44.516;2023-12-14T04:28:12;150.15;;;73.82;;
34988;SDS011;21192;40.182;44.516;2023-12-14T04:30:38;157.55;;;74.82;;
34988;SDS011;21192;40.182;44.516;2023-12-14T04:33:04;157.40;;;73.78;;
34988;SDS011;21192;40.182;44.516;2023-12-14T04:35:29;155.68;;;74.57;;
34988;SDS011;21192;40.182;44.516;2023-12-14T04:38:01;154.30;;;75.10;;
34988;SDS011;21192;40.182;44.516;2023-12-14T04:40:27;154.82;;;73.30;;
34988;SDS011;21192;40.182;44.516;2023-12-14T04:42:53;155.90;;;72.80;;
34988;SDS011;21192;40.182;44.516;2023-12-14T04:45:19;144.38;;;69.90;;
34988;SDS011;21192;40.182;44.516;2023-12-14T04:47:45;142.15;;;68.65;;
34988;SDS011;21192;40.182;44.516;2023-12-14T04:50:10;141.25;;;69.07;;
34988;SDS011;21192;40.182;44.516;2023-12-14T04:52:37;141.98;;;68.55;;
34988;SDS011;21192;40.182;44.516;2023-12-14T04:55:03;142.27;;;65.97;;
34988;SDS011;21192;40.182;44.516;2023-12-14T04:57:29;137.10;;;64.45;;
34988;SDS011;21192;40.182;44.516;2023-12-14T04:59:55;139.48;;;67.30;;
34988;SDS011;21192;40.182;44.516;2023-12-14T05:02:21;145.93;;;72.47;;
34988;SDS011;21192;40.182;44.516;2023-12-14T05:04:46;143.65;;;69.07;;
34988;SDS011;21192;40.182;44.516;2023-12-14T05:07:12;150.07;;;74.18;;
34988;SDS011;21192;40.182;44.516;2023-12-14T05:09:38;127.82;;;66.50;;
34988;SDS011;21192;40.182;44.516;2023-12-14T05:12:04;143.35;;;70.78;;
34988;SDS011;21192;40.182;44.516;2023-12-14T05:14:30;139.70;;;70.15;;
34988;SDS011;21192;40.182;44.516;2023-12-14T05:16:56;150.13;;;72.70;;
34988;SDS011;21192;40.182;44.516;2023-12-14T05:19:22;138.88;;;70.82;;
34988;SDS011;21192;40.182;44.516;2023-12-14T05:21:48;139.70;;;69.95;;
34988;SDS011;21192;40.182;44.516;2023-12-14T05:24:14;143.80;;;70.15;;
34988;SDS011;21192;40.182;44.516;2023-12-14T05:26:40;136.55;;;68.32;;
34988;SDS011;21192;40.182;44.516;2023-12-14T05:29:05;141.38;;;71.20;;
34988;SDS011;21192;40.182;44.516;2023-12-14T05:31:31;142.70;;;70.78;;
34988;SDS011;21192;40.182;44.516;2023-12-14T05:33:57;140.98;;;72.50;;
34988;SDS011;21192;40.182;44.516;2023-12-14T05:36:23;132.25;;;69.78;;
34988;SDS011;21192;40.182;44.516;2023-12-14T05:38:49;132.82;;;65.30;;
34988;SDS011;21192;40.182;44.516;2023-12-14T05:41:15;129.65;;;67.60;;
34988;SDS011;21192;40.182;44.516;2023-12-14T05:43:41;133.45;;;64.80;;
34988;SDS011;21192;40.182;44.516;2023-12-14T05:46:07;133.05;;;65.30;;
34988;SDS011;21192;40.182;44.516;2023-12-14T05:48:33;130.55;;;66.78;;
34988;SDS011;21192;40.182;44.516;2023-12-14T05:50:59;129.85;;;68.20;;
34988;SDS011;21192;40.182;44.516;2023-12-14T05:53:26;129.27;;;66.80;;
34988;SDS011;21192;40.182;44.516;2023-12-14T05:55:52;117.10;;;64.30;;
34988;SDS011;21192;40.182;44.516;2023-12-14T05:58:18;119.22;;;63.10;;
34988;SDS011;21192;40.182;44.516;2023-12-14T06:00:44;125.22;;;68.28;;
34988;SDS011;21192;40.182;44.516;2023-12-14T06:03:10;121.03;;;67.85;;
34988;SDS011;21192;40.182;44.516;2023-12-14T06:05:35;118.78;;;67.28;;
34988;SDS011;21192;40.182;44.516;2023-12-14T06:08:01;115.75;;;63.63;;
34988;SDS011;21192;40.182;44.516;2023-12-14T06:10:27;112.78;;;63.15;;
34988;SDS011;21192;40.182;44.516;2023-12-14T06:12:54;115.22;;;64.07;;
34988;SDS011;21192;40.182;44.516;2023-12-14T06:15:20;109.85;;;60.83;;
34988;SDS011;21192;40.182;44.516;2023-12-14T06:17:46;96.20;;;57.45;;
34988;SDS011;21192;40.182;44.516;2023-12-14T06:20:11;98.63;;;54.60;;
34988;SDS011;21192;40.182;44.516;2023-12-14T06:22:38;86.40;;;52.45;;
34988;SDS011;21192;40.182;44.516;2023-12-14T06:25:05;95.43;;;54.47;;
34988;SDS011;21192;40.182;44.516;2023-12-14T06:27:31;96.72;;;53.08;;
34988;SDS011;21192;40.182;44.516;2023-12-14T06:29:57;81.93;;;50.50;;
34988;SDS011;21192;40.182;44.516;2023-12-14T06:32:23;94.43;;;51.88;;
34988;SDS011;21192;40.182;44.516;2023-12-14T06:34:49;90.68;;;51.22;;
34988;SDS011;21192;40.182;44.516;2023-12-14T06:37:15;104.43;;;54.80;;
34988;SDS011;21192;40.182;44.516;2023-12-14T06:39:41;103.68;;;56.92;;
34988;SDS011;21192;40.182;44.516;2023-12-14T06:42:07;104.55;;;57.92;;
34988;SDS011;21192;40.182;44.516;2023-12-14T06:44:33;100.97;;;56.22;;
34988;SDS011;21192;40.182;44.516;2023-12-14T06:46:59;89.00;;;52.78;;
34988;SDS011;21192;40.182;44.516;2023-12-14T06:49:25;94.22;;;52.67;;
34988;SDS011;21192;40.182;44.516;2023-12-14T06:51:51;94.95;;;53.58;;
34988;SDS011;21192;40.182;44.516;2023-12-14T06:54:17;98.32;;;53.47;;
34988;SDS011;21192;40.182;44.516;2023-12-14T06:56:43;96.65;;;52.70;;
34988;SDS011;21192;40.182;44.516;2023-12-14T06:59:09;97.85;;;56.05;;
34988;SDS011;21192;40.182;44.516;2023-12-14T07:01:35;107.05;;;58.88;;
34988;SDS011;21192;40.182;44.516;2023-12-14T07:04:01;104.93;;;59.45;;
34988;SDS011;21192;40.182;44.516;2023-12-14T07:06:28;117.68;;;60.60;;
34988;SDS011;21192;40.182;44.516;2023-12-14T07:08:54;114.03;;;61.83;;
34988;SDS011;21192;40.182;44.516;2023-12-14T07:11:20;106.22;;;62.40;;
34988;SDS011;21192;40.182;44.516;2023-12-14T07:13:46;119.35;;;64.43;;
34988;SDS011;21192;40.182;44.516;2023-12-14T07:16:12;124.25;;;68.20;;
34988;SDS011;21192;40.182;44.516;2023-12-14T07:18:40;128.45;;;70.25;;
34988;SDS011;21192;40.182;44.516;2023-12-14T07:21:06;134.80;;;76.90;;
34988;SDS011;21192;40.182;44.516;2023-12-14T07:23:33;133.45;;;73.43;;
34988;SDS011;21192;40.182;44.516;2023-12-14T07:26:00;126.20;;;68.43;;
34988;SDS011;21192;40.182;44.516;2023-12-14T07:28:26;143.73;;;74.43;;
34988;SDS011;21192;40.182;44.516;2023-12-14T07:30:52;150.52;;;79.57;;
34988;SDS011;21192;40.182;44.516;2023-12-14T07:33:18;144.43;;;78.18;;
34988;SDS011;21192;40.182;44.516;2023-12-14T07:35:44;141.13;;;77.45;;
34988;SDS011;21192;40.182;44.516;2023-12-14T07:38:10;146.93;;;79.63;;
34988;SDS011;21192;40.182;44.516;2023-12-14T07:40:36;155.68;;;82.57;;
34988;SDS011;21192;40.182;44.516;2023-12-14T07:43:04;150.60;;;80.35;;
34988;SDS011;21192;40.182;44.516;2023-12-14T07:45:30;146.90;;;78.28;;
34988;SDS011;21192;40.182;44.516;2023-12-14T07:47:56;154.75;;;79.15;;
34988;SDS011;21192;40.182;44.516;2023-12-14T07:50:22;157.45;;;82.00;;
34988;SDS011;21192;40.182;44.516;2023-12-14T07:52:48;171.43;;;85.88;;
34988;SDS011;21192;40.182;44.516;2023-12-14T07:55:14;166.80;;;86.63;;
34988;SDS011;21192;40.182;44.516;2023-12-14T07:57:40;167.30;;;88.78;;
34988;SDS011;21192;40.182;44.516;2023-12-14T08:00:06;166.82;;;88.13;;
34988;SDS011;21192;40.182;44.516;2023-12-14T08:02:36;151.48;;;83.35;;
34988;SDS011;21192;40.182;44.516;2023-12-14T08:05:02;146.73;;;82.35;;
34988;SDS011;21192;40.182;44.516;2023-12-14T08:07:28;143.10;;;81.82;;
34988;SDS011;21192;40.182;44.516;2023-12-14T08:09:55;145.52;;;79.68;;
34988;SDS011;21192;40.182;44.516;2023-12-14T08:12:21;152.23;;;80.75;;
34988;SDS011;21192;40.182;44.516;2023-12-14T08:14:50;146.85;;;77.43;;
34988;SDS011;21192;40.182;44.516;2023-12-14T08:17:16;128.07;;;74.43;;
34988;SDS011;21192;40.182;44.516;2023-12-14T08:19:42;126.18;;;72.70;;
34988;SDS011;21192;40.182;44.516;2023-12-14T08:22:08;121.38;;;70.47;;
34988;SDS011;21192;40.182;44.516;2023-12-14T08:24:37;114.68;;;67.97;;
34988;SDS011;21192;40.182;44.516;2023-12-14T08:27:03;119.93;;;71.95;;
34988;SDS011;21192;40.182;44.516;2023-12-14T08:29:29;113.30;;;69.15;;
34988;SDS011;21192;40.182;44.516;2023-12-14T08:31:55;116.75;;;69.53;;
34988;SDS011;21192;40.182;44.516;2023-12-14T08:34:25;117.22;;;66.10;;
34988;SDS011;21192;40.182;44.516;2023-12-14T08:36:52;111.88;;;70.50;;
34988;SDS011;21192;40.182;44.516;2023-12-14T08:39:18;125.00;;;74.03;;
34988;SDS011;21192;40.182;44.516;2023-12-14T08:41:47;119.55;;;75.68;;
34988;SDS011;21192;40.182;44.516;2023-12-14T08:44:14;123.22;;;77.07;;
34988;SDS011;21192;40.182;44.516;2023-12-14T08:46:43;116.80;;;72.88;;
34988;SDS011;21192;40.182;44.516;2023-12-14T08:49:11;119.25;;;74.25;;
34988;SDS011;21192;40.182;44.516;2023-12-14T08:51:37;118.60;;;72.80;;
34988;SDS011;21192;40.182;44.516;2023-12-14T08:54:04;119.00;;;72.68;;
34988;SDS011;21192;40.182;44.516;2023-12-14T08:56:30;109.60;;;65.90;;
34988;SDS011;21192;40.182;44.516;2023-12-14T08:58:56;113.82;;;70.90;;
34988;SDS011;21192;40.182;44.516;2023-12-14T09:01:24;118.07;;;72.75;;
34988;SDS011;21192;40.182;44.516;2023-12-14T09:03:50;144.98;;;84.07;;
34988;SDS011;21192;40.182;44.516;2023-12-14T09:06:16;141.75;;;87.25;;
34988;SDS011;21192;40.182;44.516;2023-12-14T09:08:43;140.38;;;87.57;;
34988;SDS011;21192;40.182;44.516;2023-12-14T09:11:10;136.82;;;82.07;;
34988;SDS011;21192;40.182;44.516;2023-12-14T09:13:36;144.65;;;83.55;;
34988;SDS011;21192;40.182;44.516;2023-12-14T09:16:02;130.30;;;78.35;;
34988;SDS011;21192;40.182;44.516;2023-12-14T09:18:28;130.45;;;78.15;;
34988;SDS011;21192;40.182;44.516;2023-12-14T09:20:54;140.43;;;82.07;;
34988;SDS011;21192;40.182;44.516;2023-12-14T09:23:20;130.25;;;77.22;;
34988;SDS011;21192;40.182;44.516;2023-12-14T09:25:46;114.20;;;68.90;;
34988;SDS011;21192;40.182;44.516;2023-12-14T09:28:12;103.43;;;62.40;;
34988;SDS011;21192;40.182;44.516;2023-12-14T09:30:38;97.63;;;62.58;;
34988;SDS011;21192;40.182;44.516;2023-12-14T09:33:04;97.43;;;59.13;;
34988;SDS011;21192;40.182;44.516;2023-12-14T09:35:31;80.20;;;51.97;;
34988;SDS011;21192;40.182;44.516;2023-12-14T09:37:56;65.60;;;41.10;;
34988;SDS011;21192;40.182;44.516;2023-12-14T09:40:22;64.43;;;39.00;;
34988;SDS011;21192;40.182;44.516;2023-12-14T09:42:49;61.50;;;37.88;;
34988;SDS011;21192;40.182;44.516;2023-12-14T09:45:16;44.05;;;25.52;;
34988;SDS011;21192;40.182;44.516;2023-12-14T09:47:42;42.03;;;26.42;;
34988;SDS011;21192;40.182;44.516;2023-12-14T09:50:11;35.47;;;22.65;;
34988;SDS011;21192;40.182;44.516;2023-12-14T09:52:39;45.05;;;24.63;;
34988;SDS011;21192;40.182;44.516;2023-12-14T09:55:10;39.55;;;24.77;;
34988;SDS011;21192;40.182;44.516;2023-12-14T09:57:36;29.48;;;17.77;;
34988;SDS011;21192;40.182;44.516;2023-12-14T10:00:02;31.30;;;17.17;;
34988;SDS011;21192;40.182;44.516;2023-12-14T10:02:31;33.75;;;19.70;;
34988;SDS011;21192;40.182;44.516;2023-12-14T10:04:57;30.75;;;19.35;;
34988;SDS011;21192;40.182;44.516;2023-12-14T10:07:23;31.23;;;18.33;;
34988;SDS011;21192;40.182;44.516;2023-12-14T10:09:49;32.25;;;18.35;;
34988;SDS011;21192;40.182;44.516;2023-12-14T10:12:15;30.25;;;18.55;;
34988;SDS011;21192;40.182;44.516;2023-12-14T10:14:41;35.35;;;19.80;;
34988;SDS011;21192;40.182;44.516;2023-12-14T10:17:17;37.38;;;21.15;;
34988;SDS011;21192;40.182;44.516;2023-12-14T10:19:46;35.05;;;19.05;;
34988;SDS011;21192;40.182;44.516;2023-12-14T10:22:16;42.75;;;23.45;;
34988;SDS011;21192;40.182;44.516;2023-12-14T10:24:51;38.20;;;21.80;;
34988;SDS011;21192;40.182;44.516;2023-12-14T10:27:17;39.15;;;20.33;;
34988;SDS011;21192;40.182;44.516;2023-12-14T10:29:43;33.22;;;18.45;;
34988;SDS011;21192;40.182;44.516;2023-12-14T10:32:10;37.35;;;19.10;;
34988;SDS011;21192;40.182;44.516;2023-12-14T10:34:37;35.63;;;18.35;;
34988;SDS011;21192;40.182;44.516;2023-12-14T10:37:04;31.27;;;18.40;;
34988;SDS011;21192;40.182;44.516;2023-12-14T10:39:31;34.08;;;16.50;;
34988;SDS011;21192;40.182;44.516;2023-12-14T10:42:03;33.78;;;18.23;;
34988;SDS011;21192;40.182;44.516;2023-12-14T10:44:30;31.50;;;18.10;;
34988;SDS011;21192;40.182;44.516;2023-12-14T10:47:00;29.83;;;18.73;;
34988;SDS011;21192;40.182;44.516;2023-12-14T10:49:31;31.17;;;18.52;;
34988;SDS011;21192;40.182;44.516;2023-12-14T10:52:00;39.08;;;20.42;;
34988;SDS011;21192;40.182;44.516;2023-12-14T10:54:30;34.75;;;18.83;;
34988;SDS011;21192;40.182;44.516;2023-12-14T10:57:01;28.33;;;16.98;;
34988;SDS011;21192;40.182;44.516;2023-12-14T10:59:28;29.13;;;16.23;;
34988;SDS011;21192;40.182;44.516;2023-12-14T11:01:56;33.83;;;17.65;;
34988;SDS011;21192;40.182;44.516;2023-12-14T11:04:26;34.50;;;17.92;;
34988;SDS011;21192;40.182;44.516;2023-12-14T11:06:55;33.67;;;19.23;;
34988;SDS011;21192;40.182;44.516;2023-12-14T11:09:22;29.10;;;18.40;;
34988;SDS011;21192;40.182;44.516;2023-12-14T11:14:22;32.40;;;18.95;;
34988;SDS011;21192;40.182;44.516;2023-12-14T11:16:48;34.53;;;20.98;;
34988;SDS011;21192;40.182;44.516;2023-12-14T11:24:21;43.20;;;25.98;;
34988;SDS011;21192;40.182;44.516;2023-12-14T11:26:50;32.70;;;21.92;;
34988;SDS011;21192;40.182;44.516;2023-12-14T11:29:17;36.97;;;22.25;;
34988;SDS011;21192;40.182;44.516;2023-12-14T11:31:44;32.80;;;21.98;;
34988;SDS011;21192;40.182;44.516;2023-12-14T11:34:11;37.38;;;22.77;;
34988;SDS011;21192;40.182;44.516;2023-12-14T11:36:37;35.25;;;19.38;;
34988;SDS011;21192;40.182;44.516;2023-12-14T11:39:09;39.13;;;22.73;;
34988;SDS011;21192;40.182;44.516;2023-12-14T11:41:36;37.08;;;23.42;;
34988;SDS011;21192;40.182;44.516;2023-12-14T11:44:04;39.70;;;24.27;;
34988;SDS011;21192;40.182;44.516;2023-12-14T11:46:30;43.10;;;26.88;;
34988;SDS011;21192;40.182;44.516;2023-12-14T11:48:57;40.80;;;25.33;;
34988;SDS011;21192;40.182;44.516;2023-12-14T11:51:23;42.80;;;26.55;;
34988;SDS011;21192;40.182;44.516;2023-12-14T11:53:55;49.88;;;29.33;;
34988;SDS011;21192;40.182;44.516;2023-12-14T11:56:21;45.45;;;28.52;;
34988;SDS011;21192;40.182;44.516;2023-12-14T11:58:50;47.13;;;28.58;;
34988;SDS011;21192;40.182;44.516;2023-12-14T12:01:19;47.05;;;28.63;;
34988;SDS011;21192;40.182;44.516;2023-12-14T12:03:50;47.28;;;28.70;;
34988;SDS011;21192;40.182;44.516;2023-12-14T12:06:34;37.05;;;23.23;;
34988;SDS011;21192;40.182;44.516;2023-12-14T12:09:00;38.35;;;22.10;;
34988;SDS011;21192;40.182;44.516;2023-12-14T12:11:30;31.30;;;19.70;;
34988;SDS011;21192;40.182;44.516;2023-12-14T12:13:57;39.20;;;22.70;;
34988;SDS011;21192;40.182;44.516;2023-12-14T12:16:25;44.10;;;25.42;;
34988;SDS011;21192;40.182;44.516;2023-12-14T12:18:51;37.80;;;22.92;;
34988;SDS011;21192;40.182;44.516;2023-12-14T12:21:17;36.25;;;23.25;;
34988;SDS011;21192;40.182;44.516;2023-12-14T12:23:43;42.58;;;23.27;;
34988;SDS011;21192;40.182;44.516;2023-12-14T12:26:09;43.60;;;26.48;;
34988;SDS011;21192;40.182;44.516;2023-12-14T12:28:34;35.22;;;21.75;;
34988;SDS011;21192;40.182;44.516;2023-12-14T12:31:00;33.65;;;16.23;;
34988;SDS011;21192;40.182;44.516;2023-12-14T12:33:26;37.42;;;21.65;;
34988;SDS011;21192;40.182;44.516;2023-12-14T12:35:52;41.50;;;24.17;;
34988;SDS011;21192;40.182;44.516;2023-12-14T12:38:19;37.10;;;23.58;;
34988;SDS011;21192;40.182;44.516;2023-12-14T12:40:45;38.63;;;21.45;;
34988;SDS011;21192;40.182;44.516;2023-12-14T12:43:13;36.22;;;22.40;;
34988;SDS011;21192;40.182;44.516;2023-12-14T12:45:39;36.70;;;22.45;;
34988;SDS011;21192;40.182;44.516;2023-12-14T12:48:05;52.05;;;23.58;;
34988;SDS011;21192;40.182;44.516;2023-12-14T12:50:32;50.03;;;22.60;;
34988;SDS011;21192;40.182;44.516;2023-12-14T12:52:58;37.15;;;20.67;;
34988;SDS011;21192;40.182;44.516;2023-12-14T12:55:24;34.67;;;21.23;;
34988;SDS011;21192;40.182;44.516;2023-12-14T12:57:50;33.85;;;20.08;;
34988;SDS011;21192;40.182;44.516;2023-12-14T13:00:16;39.85;;;21.30;;
34988;SDS011;21192;40.182;44.516;2023-12-14T13:02:43;35.58;;;20.33;;
34988;SDS011;21192;40.182;44.516;2023-12-14T13:05:12;32.00;;;17.77;;
34988;SDS011;21192;40.182;44.516;2023-12-14T13:07:40;29.45;;;18.45;;
34988;SDS011;21192;40.182;44.516;2023-12-14T13:10:09;37.72;;;20.60;;
34988;SDS011;21192;40.182;44.516;2023-12-14T13:12:35;32.35;;;18.08;;
34988;SDS011;21192;40.182;44.516;2023-12-14T13:15:01;31.90;;;18.02;;
34988;SDS011;21192;40.182;44.516;2023-12-14T13:17:27;30.75;;;17.05;;
34988;SDS011;21192;40.182;44.516;2023-12-14T13:19:53;28.63;;;15.73;;
34988;SDS011;21192;40.182;44.516;2023-12-14T13:22:19;29.55;;;17.30;;
34988;SDS011;21192;40.182;44.516;2023-12-14T13:24:45;34.00;;;19.83;;
34988;SDS011;21192;40.182;44.516;2023-12-14T13:27:11;44.45;;;19.33;;
34988;SDS011;21192;40.182;44.516;2023-12-14T13:29:37;40.35;;;19.77;;
34988;SDS011;21192;40.182;44.516;2023-12-14T13:32:03;40.30;;;18.75;;
34988;SDS011;21192;40.182;44.516;2023-12-14T13:34:29;38.25;;;18.45;;
34988;SDS011;21192;40.182;44.516;2023-12-14T13:36:56;40.47;;;20.25;;
34988;SDS011;21192;40.182;44.516;2023-12-14T13:39:22;49.22;;;19.48;;
34988;SDS011;21192;40.182;44.516;2023-12-14T13:41:48;34.13;;;18.90;;
34988;SDS011;21192;40.182;44.516;2023-12-14T13:44:14;39.28;;;18.38;;
34988;SDS011;21192;40.182;44.516;2023-12-14T13:46:40;44.20;;;20.63;;
34988;SDS011;21192;40.182;44.516;2023-12-14T13:49:06;42.05;;;20.75;;
34988;SDS011;21192;40.182;44.516;2023-12-14T13:51:32;46.70;;;24.15;;
34988;SDS011;21192;40.182;44.516;2023-12-14T13:53:59;44.05;;;21.63;;
34988;SDS011;21192;40.182;44.516;2023-12-14T13:56:24;48.95;;;20.70;;
34988;SDS011;21192;40.182;44.516;2023-12-14T13:58:50;52.95;;;20.50;;
34988;SDS011;21192;40.182;44.516;2023-12-14T14:01:16;42.85;;;21.10;;
34988;SDS011;21192;40.182;44.516;2023-12-14T14:03:42;42.97;;;20.30;;
34988;SDS011;21192;40.182;44.516;2023-12-14T14:06:08;46.92;;;20.65;;